sensor_id;sensor_type;location;lat;lon;timestamp;pressure;altitude;pressure_sealevel;temperature;humidity
75497;BME280;64074;47.540;19.072;2023-04-06T00:00:41;100770.19;;;4.17;46.50
75497;BME280;64074;47.540;19.072;2023-04-06T00:03:43;100768.72;;;4.09;47.91
75497;BME280;64074;47.540;19.072;2023-04-06T00:06:46;100768.44;;;3.77;48.55
75497;BME280;64074;47.540;19.072;2023-04-06T00:09:49;100771.22;;;3.70;48.77
75497;BME280;64074;47.540;19.072;2023-04-06T00:12:52;100767.88;;;3.63;47.99
75497;BME280;64074;47.540;19.072;2023-04-06T00:15:56;100767.88;;;3.63;48.33
75497;BME280;64074;47.540;19.072;2023-04-06T00:18:58;100758.81;;;3.24;49.55
75497;BME280;64074;47.540;19.072;2023-04-06T00:22:02;100767.44;;;2.91;50.07
75497;BME280;64074;47.540;19.072;2023-04-06T00:25:06;100764.06;;;2.96;50.34
75497;BME280;64074;47.540;19.072;2023-04-06T00:28:08;100752.91;;;2.99;50.13
75497;BME280;64074;47.540;19.072;2023-04-06T00:31:12;100753.81;;;2.93;49.33
75497;BME280;64074;47.540;19.072;2023-04-06T00:34:14;100749.41;;;2.87;49.58
75497;BME280;64074;47.540;19.072;2023-04-06T00:37:19;100750.69;;;2.72;50.56
75497;BME280;64074;47.540;19.072;2023-04-06T00:40:23;100748.47;;;2.93;50.62
75497;BME280;64074;47.540;19.072;2023-04-06T00:43:29;100753.59;;;2.94;50.42
75497;BME280;64074;47.540;19.072;2023-04-06T00:46:32;100742.06;;;2.94;50.75
75497;BME280;64074;47.540;19.072;2023-04-06T00:49:36;100745.91;;;2.86;51.77
75497;BME280;64074;47.540;19.072;2023-04-06T00:52:39;100741.72;;;2.90;50.87
75497;BME280;64074;47.540;19.072;2023-04-06T00:55:44;100750.59;;;2.79;51.14
75497;BME280;64074;47.540;19.072;2023-04-06T00:58:47;100742.19;;;2.87;51.00
75497;BME280;64074;47.540;19.072;2023-04-06T01:01:50;100753.72;;;2.88;50.92
75497;BME280;64074;47.540;19.072;2023-04-06T01:05:06;100748.94;;;2.66;50.93
75497;BME280;64074;47.540;19.072;2023-04-06T01:08:24;100744.66;;;2.65;50.80
75497;BME280;64074;47.540;19.072;2023-04-06T01:11:33;100745.78;;;2.46;51.08
75497;BME280;64074;47.540;19.072;2023-04-06T01:14:38;100754.44;;;2.48;51.36
75497;BME280;64074;47.540;19.072;2023-04-06T01:17:41;100741.97;;;2.54;51.35
75497;BME280;64074;47.540;19.072;2023-04-06T01:20:49;100757.16;;;2.18;51.85
75497;BME280;64074;47.540;19.072;2023-04-06T01:23:53;100749.50;;;2.45;51.38
75497;BME280;64074;47.540;19.072;2023-04-06T01:27:02;100743.00;;;2.29;51.44
75497;BME280;64074;47.540;19.072;2023-04-06T01:30:38;100745.78;;;2.34;51.45
75497;BME280;64074;47.540;19.072;2023-04-06T01:33:48;100745.09;;;1.85;52.61
75497;BME280;64074;47.540;19.072;2023-04-06T01:36:55;100743.38;;;1.91;52.32
75497;BME280;64074;47.540;19.072;2023-04-06T01:40:02;100743.53;;;2.08;52.54
75497;BME280;64074;47.540;19.072;2023-04-06T01:43:16;100738.13;;;2.26;51.67
75497;BME280;64074;47.540;19.072;2023-04-06T01:46:41;100744.97;;;2.34;51.43
75497;BME280;64074;47.540;19.072;2023-04-06T01:49:47;100743.41;;;2.03;50.88
75497;BME280;64074;47.540;19.072;2023-04-06T01:52:51;100740.97;;;1.71;51.34
75497;BME280;64074;47.540;19.072;2023-04-06T01:55:55;100730.56;;;1.81;51.00
75497;BME280;64074;47.540;19.072;2023-04-06T01:59:03;100733.59;;;1.85;50.46
75497;BME280;64074;47.540;19.072;2023-04-06T02:02:12;100731.38;;;2.24;50.17
75497;BME280;64074;47.540;19.072;2023-04-06T02:05:21;100727.19;;;2.28;50.14
75497;BME280;64074;47.540;19.072;2023-04-06T02:08:26;100716.00;;;2.31;50.83
75497;BME280;64074;47.540;19.072;2023-04-06T02:11:29;100712.66;;;2.24;51.18
75497;BME280;64074;47.540;19.072;2023-04-06T02:14:32;100717.88;;;2.30;51.55
75497;BME280;64074;47.540;19.072;2023-04-06T02:17:35;100717.06;;;2.41;51.29
75497;BME280;64074;47.540;19.072;2023-04-06T02:20:38;100715.31;;;2.47;50.75
75497;BME280;64074;47.540;19.072;2023-04-06T02:23:41;100719.50;;;2.43;49.47
75497;BME280;64074;47.540;19.072;2023-04-06T02:26:44;100698.91;;;2.32;49.88
75497;BME280;64074;47.540;19.072;2023-04-06T02:29:48;100701.13;;;2.35;49.84
75497;BME280;64074;47.540;19.072;2023-04-06T02:32:55;100703.22;;;2.33;49.93
75497;BME280;64074;47.540;19.072;2023-04-06T02:35:59;100706.13;;;2.31;49.71
75497;BME280;64074;47.540;19.072;2023-04-06T02:39:04;100705.91;;;2.33;50.02
75497;BME280;64074;47.540;19.072;2023-04-06T02:42:08;100705.16;;;2.14;49.67
75497;BME280;64074;47.540;19.072;2023-04-06T02:45:12;100699.81;;;2.14;49.30
75497;BME280;64074;47.540;19.072;2023-04-06T02:48:18;100702.16;;;2.22;49.98
75497;BME280;64074;47.540;19.072;2023-04-06T02:51:22;100702.75;;;2.24;49.37
75497;BME280;64074;47.540;19.072;2023-04-06T02:54:30;100701.00;;;2.30;49.72
75497;BME280;64074;47.540;19.072;2023-04-06T02:57:35;100698.34;;;2.30;49.72
75497;BME280;64074;47.540;19.072;2023-04-06T03:00:38;100697.06;;;2.32;49.57
75497;BME280;64074;47.540;19.072;2023-04-06T03:03:41;100698.44;;;2.35;49.59
75497;BME280;64074;47.540;19.072;2023-04-06T03:06:53;100698.56;;;2.40;49.41
75497;BME280;64074;47.540;19.072;2023-04-06T03:10:07;100701.00;;;2.41;49.64
75497;BME280;64074;47.540;19.072;2023-04-06T03:13:11;100706.59;;;2.40;49.08
75497;BME280;64074;47.540;19.072;2023-04-06T03:16:29;100703.69;;;2.41;49.64
75497;BME280;64074;47.540;19.072;2023-04-06T03:19:34;100697.75;;;2.28;49.07
75497;BME280;64074;47.540;19.072;2023-04-06T03:22:38;100694.03;;;2.29;49.00
75497;BME280;64074;47.540;19.072;2023-04-06T03:25:43;100691.91;;;2.19;49.23
75497;BME280;64074;47.540;19.072;2023-04-06T03:28:50;100694.94;;;2.23;50.09
75497;BME280;64074;47.540;19.072;2023-04-06T03:31:57;100711.94;;;2.40;49.07
75497;BME280;64074;47.540;19.072;2023-04-06T03:35:09;100708.31;;;2.46;49.29
75497;BME280;64074;47.540;19.072;2023-04-06T03:38:13;100704.03;;;2.45;49.38
75497;BME280;64074;47.540;19.072;2023-04-06T03:41:15;100697.63;;;2.46;50.32
75497;BME280;64074;47.540;19.072;2023-04-06T03:44:26;100693.56;;;2.43;50.00
75497;BME280;64074;47.540;19.072;2023-04-06T03:47:29;100697.28;;;2.31;50.83
75497;BME280;64074;47.540;19.072;2023-04-06T03:50:36;100694.03;;;2.29;50.50
75497;BME280;64074;47.540;19.072;2023-04-06T03:53:41;100694.47;;;2.14;51.65
75497;BME280;64074;47.540;19.072;2023-04-06T03:56:44;100700.75;;;2.20;51.68
75497;BME280;64074;47.540;19.072;2023-04-06T03:59:46;100693.53;;;2.08;51.26
75497;BME280;64074;47.540;19.072;2023-04-06T04:02:49;100699.59;;;2.04;52.48
75497;BME280;64074;47.540;19.072;2023-04-06T04:05:52;100690.97;;;2.13;52.10
75497;BME280;64074;47.540;19.072;2023-04-06T04:08:55;100692.25;;;2.11;50.89
75497;BME280;64074;47.540;19.072;2023-04-06T04:11:57;100682.13;;;1.90;50.29
75497;BME280;64074;47.540;19.072;2023-04-06T04:15:01;100690.69;;;1.80;50.91
75497;BME280;64074;47.540;19.072;2023-04-06T04:18:04;100689.91;;;1.91;50.76
75497;BME280;64074;47.540;19.072;2023-04-06T04:21:07;100680.75;;;1.99;50.55
75497;BME280;64074;47.540;19.072;2023-04-06T04:24:11;100682.41;;;1.70;51.85
75497;BME280;64074;47.540;19.072;2023-04-06T04:27:15;100686.97;;;1.81;50.71
75497;BME280;64074;47.540;19.072;2023-04-06T04:30:18;100685.59;;;1.78;50.86
75497;BME280;64074;47.540;19.072;2023-04-06T04:33:23;100678.63;;;1.47;51.29
75497;BME280;64074;47.540;19.072;2023-04-06T04:36:30;100679.81;;;1.51;51.46
75497;BME280;64074;47.540;19.072;2023-04-06T04:39:36;100676.94;;;1.65;51.43
75497;BME280;64074;47.540;19.072;2023-04-06T04:42:41;100670.78;;;1.64;51.45
75497;BME280;64074;47.540;19.072;2023-04-06T04:45:50;100675.25;;;1.82;50.50
75497;BME280;64074;47.540;19.072;2023-04-06T04:49:10;100669.44;;;1.85;50.78
75497;BME280;64074;47.540;19.072;2023-04-06T04:52:14;100665.50;;;1.88;50.30
75497;BME280;64074;47.540;19.072;2023-04-06T04:55:31;100671.53;;;1.83;49.93
75497;BME280;64074;47.540;19.072;2023-04-06T04:58:35;100678.84;;;1.88;50.76
75497;BME280;64074;47.540;19.072;2023-04-06T05:01:39;100681.22;;;2.07;50.09
75497;BME280;64074;47.540;19.072;2023-04-06T05:04:57;100674.59;;;2.22;49.74
75497;BME280;64074;47.540;19.072;2023-04-06T05:08:03;100671.81;;;2.16;49.07
75497;BME280;64074;47.540;19.072;2023-04-06T05:11:15;100666.94;;;2.37;48.44
75497;BME280;64074;47.540;19.072;2023-04-06T05:14:23;100658.31;;;2.35;48.42
75497;BME280;64074;47.540;19.072;2023-04-06T05:17:27;100648.78;;;2.27;49.38
75497;BME280;64074;47.540;19.072;2023-04-06T05:20:31;100650.06;;;2.13;49.37
75497;BME280;64074;47.540;19.072;2023-04-06T05:23:34;100650.38;;;1.93;49.68
75497;BME280;64074;47.540;19.072;2023-04-06T05:26:38;100637.84;;;2.29;49.24
75497;BME280;64074;47.540;19.072;2023-04-06T05:29:48;100641.56;;;2.51;48.46
75497;BME280;64074;47.540;19.072;2023-04-06T05:32:52;100638.91;;;2.51;47.85
75497;BME280;64074;47.540;19.072;2023-04-06T05:35:57;100631.56;;;2.35;48.27
75497;BME280;64074;47.540;19.072;2023-04-06T05:39:00;100627.13;;;2.40;47.89
75497;BME280;64074;47.540;19.072;2023-04-06T05:42:14;100627.06;;;2.24;49.86
75497;BME280;64074;47.540;19.072;2023-04-06T05:45:29;100631.31;;;2.60;48.61
75497;BME280;64074;47.540;19.072;2023-04-06T05:48:34;100629.00;;;2.16;49.23
75497;BME280;64074;47.540;19.072;2023-04-06T05:51:38;100623.88;;;2.50;48.63
75497;BME280;64074;47.540;19.072;2023-04-06T05:54:41;100631.66;;;2.63;47.69
75497;BME280;64074;47.540;19.072;2023-04-06T05:57:44;100625.75;;;2.38;48.71
75497;BME280;64074;47.540;19.072;2023-04-06T06:00:50;100631.53;;;2.46;48.38
75497;BME280;64074;47.540;19.072;2023-04-06T06:03:55;100611.59;;;2.26;48.94
75497;BME280;64074;47.540;19.072;2023-04-06T06:07:03;100624.81;;;2.56;48.19
75497;BME280;64074;47.540;19.072;2023-04-06T06:10:15;100616.78;;;2.44;48.38
75497;BME280;64074;47.540;19.072;2023-04-06T06:13:22;100618.88;;;2.54;47.94
75497;BME280;64074;47.540;19.072;2023-04-06T06:16:26;100610.28;;;2.52;48.23
75497;BME280;64074;47.540;19.072;2023-04-06T06:19:29;100615.75;;;2.33;48.60
75497;BME280;64074;47.540;19.072;2023-04-06T06:22:36;100611.16;;;2.69;48.31
75497;BME280;64074;47.540;19.072;2023-04-06T06:25:41;100602.72;;;2.89;47.41
75497;BME280;64074;47.540;19.072;2023-04-06T06:28:44;100594.50;;;2.78;47.23
75497;BME280;64074;47.540;19.072;2023-04-06T06:31:48;100593.94;;;3.05;46.64
75497;BME280;64074;47.540;19.072;2023-04-06T06:34:52;100592.19;;;3.27;45.33
75497;BME280;64074;47.540;19.072;2023-04-06T06:37:55;100591.16;;;3.45;45.87
75497;BME280;64074;47.540;19.072;2023-04-06T06:41:01;100589.53;;;3.44;44.93
75497;BME280;64074;47.540;19.072;2023-04-06T06:44:07;100590.09;;;3.46;44.32
75497;BME280;64074;47.540;19.072;2023-04-06T06:47:10;100585.16;;;3.71;43.78
75497;BME280;64074;47.540;19.072;2023-04-06T06:50:13;100577.63;;;3.52;43.82
75497;BME280;64074;47.540;19.072;2023-04-06T06:53:16;100583.13;;;3.62;43.85
75497;BME280;64074;47.540;19.072;2023-04-06T06:56:19;100577.97;;;3.72;43.78
75497;BME280;64074;47.540;19.072;2023-04-06T06:59:22;100585.09;;;3.83;43.79
75497;BME280;64074;47.540;19.072;2023-04-06T07:02:26;100576.94;;;4.12;43.14
75497;BME280;64074;47.540;19.072;2023-04-06T07:05:28;100580.59;;;4.22;43.25
75497;BME280;64074;47.540;19.072;2023-04-06T07:08:33;100580.41;;;4.29;43.19
75497;BME280;64074;47.540;19.072;2023-04-06T07:11:37;100585.59;;;3.80;42.54
75497;BME280;64074;47.540;19.072;2023-04-06T07:14:41;100589.34;;;4.35;42.72
75497;BME280;64074;47.540;19.072;2023-04-06T07:17:44;100580.81;;;4.21;41.41
75497;BME280;64074;47.540;19.072;2023-04-06T07:20:49;100593.13;;;4.00;41.95
75497;BME280;64074;47.540;19.072;2023-04-06T07:23:53;100582.88;;;4.52;41.37
75497;BME280;64074;47.540;19.072;2023-04-06T07:26:58;100589.41;;;4.61;40.10
75497;BME280;64074;47.540;19.072;2023-04-06T07:30:01;100572.50;;;5.10;40.11
75497;BME280;64074;47.540;19.072;2023-04-06T07:33:05;100575.06;;;4.73;40.47
75497;BME280;64074;47.540;19.072;2023-04-06T07:36:10;100564.59;;;4.98;39.54
75497;BME280;64074;47.540;19.072;2023-04-06T07:39:14;100573.13;;;4.46;40.61
75497;BME280;64074;47.540;19.072;2023-04-06T07:42:17;100567.91;;;5.05;40.53
75497;BME280;64074;47.540;19.072;2023-04-06T07:45:20;100561.28;;;5.18;39.99
75497;BME280;64074;47.540;19.072;2023-04-06T07:48:23;100565.03;;;5.17;39.53
75497;BME280;64074;47.540;19.072;2023-04-06T07:51:26;100565.31;;;5.15;39.96
75497;BME280;64074;47.540;19.072;2023-04-06T07:54:30;100569.03;;;4.87;39.73
75497;BME280;64074;47.540;19.072;2023-04-06T07:57:33;100562.25;;;5.34;39.57
75497;BME280;64074;47.540;19.072;2023-04-06T08:00:36;100564.28;;;4.94;39.48
75497;BME280;64074;47.540;19.072;2023-04-06T08:03:39;100564.31;;;5.21;39.61
75497;BME280;64074;47.540;19.072;2023-04-06T08:06:42;100562.41;;;5.49;39.22
75497;BME280;64074;47.540;19.072;2023-04-06T08:09:45;100554.03;;;5.45;39.24
75497;BME280;64074;47.540;19.072;2023-04-06T08:12:47;100554.28;;;5.76;38.51
75497;BME280;64074;47.540;19.072;2023-04-06T08:15:50;100555.97;;;5.50;38.62
75497;BME280;64074;47.540;19.072;2023-04-06T08:18:53;100543.97;;;5.68;38.58
75497;BME280;64074;47.540;19.072;2023-04-06T08:21:56;100541.56;;;5.98;38.06
75497;BME280;64074;47.540;19.072;2023-04-06T08:24:59;100535.97;;;6.10;37.58
75497;BME280;64074;47.540;19.072;2023-04-06T08:28:05;100525.59;;;6.39;37.66
75497;BME280;64074;47.540;19.072;2023-04-06T08:31:07;100539.09;;;6.44;37.88
75497;BME280;64074;47.540;19.072;2023-04-06T08:34:10;100543.13;;;5.62;37.79
75497;BME280;64074;47.540;19.072;2023-04-06T08:37:15;100543.81;;;5.79;37.96
75497;BME280;64074;47.540;19.072;2023-04-06T08:40:19;100524.50;;;6.35;37.23
75497;BME280;64074;47.540;19.072;2023-04-06T08:43:25;100524.94;;;6.16;36.98
75497;BME280;64074;47.540;19.072;2023-04-06T08:46:30;100526.66;;;6.33;37.03
75497;BME280;64074;47.540;19.072;2023-04-06T08:49:37;100524.94;;;6.79;36.84
75497;BME280;64074;47.540;19.072;2023-04-06T08:52:40;100525.81;;;7.10;36.08
75497;BME280;64074;47.540;19.072;2023-04-06T08:55:44;100529.28;;;6.85;34.29
75497;BME280;64074;47.540;19.072;2023-04-06T08:58:47;100528.47;;;6.90;34.20
75497;BME280;64074;47.540;19.072;2023-04-06T09:01:51;100522.53;;;6.77;34.01
75497;BME280;64074;47.540;19.072;2023-04-06T09:04:56;100511.81;;;7.33;34.02
75497;BME280;64074;47.540;19.072;2023-04-06T09:07:59;100522.06;;;7.36;32.73
75497;BME280;64074;47.540;19.072;2023-04-06T09:11:02;100524.75;;;7.62;32.29
75497;BME280;64074;47.540;19.072;2023-04-06T09:14:05;100516.41;;;7.28;31.91
75497;BME280;64074;47.540;19.072;2023-04-06T09:17:19;100506.69;;;7.06;32.70
75497;BME280;64074;47.540;19.072;2023-04-06T09:20:24;100514.25;;;7.70;32.73
75497;BME280;64074;47.540;19.072;2023-04-06T09:23:30;100517.22;;;7.74;32.40
75497;BME280;64074;47.540;19.072;2023-04-06T09:26:44;100502.59;;;7.85;32.19
75497;BME280;64074;47.540;19.072;2023-04-06T09:29:48;100509.09;;;7.84;31.84
75497;BME280;64074;47.540;19.072;2023-04-06T09:32:56;100505.75;;;8.18;32.24
75497;BME280;64074;47.540;19.072;2023-04-06T09:35:59;100504.19;;;8.07;32.07
75497;BME280;64074;47.540;19.072;2023-04-06T09:39:04;100503.53;;;8.40;31.75
75497;BME280;64074;47.540;19.072;2023-04-06T09:42:08;100494.34;;;8.41;30.84
75497;BME280;64074;47.540;19.072;2023-04-06T09:45:11;100495.03;;;8.67;30.45
75497;BME280;64074;47.540;19.072;2023-04-06T09:48:14;100501.56;;;8.61;30.89
75497;BME280;64074;47.540;19.072;2023-04-06T09:51:18;100494.91;;;8.38;30.81
75497;BME280;64074;47.540;19.072;2023-04-06T09:54:22;100498.16;;;8.89;30.50
75497;BME280;64074;47.540;19.072;2023-04-06T09:57:29;100485.03;;;9.12;30.20
75497;BME280;64074;47.540;19.072;2023-04-06T10:00:46;100483.88;;;9.23;30.72
75497;BME280;64074;47.540;19.072;2023-04-06T10:07:10;100474.38;;;9.83;30.00
75497;BME280;64074;47.540;19.072;2023-04-06T10:10:18;100467.81;;;10.13;29.04
75497;BME280;64074;47.540;19.072;2023-04-06T10:13:21;100467.22;;;10.22;28.65
75497;BME280;64074;47.540;19.072;2023-04-06T10:16:26;100476.13;;;9.74;28.44
75497;BME280;64074;47.540;19.072;2023-04-06T10:26:16;100454.03;;;9.86;28.46
75497;BME280;64074;47.540;19.072;2023-04-06T10:29:20;100451.97;;;10.02;28.59
75497;BME280;64074;47.540;19.072;2023-04-06T10:32:35;100442.88;;;10.16;28.21
75497;BME280;64074;47.540;19.072;2023-04-06T10:35:47;100444.19;;;9.71;28.70
75497;BME280;64074;47.540;19.072;2023-04-06T10:38:55;100445.47;;;9.79;29.08
75497;BME280;64074;47.540;19.072;2023-04-06T10:42:06;100449.66;;;10.38;27.98
75497;BME280;64074;47.540;19.072;2023-04-06T10:45:27;100442.00;;;10.83;27.38
75497;BME280;64074;47.540;19.072;2023-04-06T10:48:44;100435.25;;;10.99;27.24
75497;BME280;64074;47.540;19.072;2023-04-06T10:51:52;100442.97;;;10.73;27.23
75497;BME280;64074;47.540;19.072;2023-04-06T10:54:56;100438.78;;;9.95;27.05
75497;BME280;64074;47.540;19.072;2023-04-06T10:57:59;100432.13;;;9.01;27.49
75497;BME280;64074;47.540;19.072;2023-04-06T11:01:02;100427.25;;;9.84;26.96
75497;BME280;64074;47.540;19.072;2023-04-06T11:04:05;100431.31;;;10.54;27.35
75497;BME280;64074;47.540;19.072;2023-04-06T11:07:11;100429.03;;;10.61;26.40
75497;BME280;64074;47.540;19.072;2023-04-06T11:10:21;100425.66;;;10.50;25.91
75497;BME280;64074;47.540;19.072;2023-04-06T11:13:24;100419.78;;;10.81;26.20
75497;BME280;64074;47.540;19.072;2023-04-06T11:16:30;100415.13;;;11.19;26.02
75497;BME280;64074;47.540;19.072;2023-04-06T11:19:34;100411.56;;;10.86;25.37
75497;BME280;64074;47.540;19.072;2023-04-06T11:22:48;100422.81;;;11.12;25.68
75497;BME280;64074;47.540;19.072;2023-04-06T11:25:52;100420.09;;;10.79;26.75
75497;BME280;64074;47.540;19.072;2023-04-06T11:28:55;100407.94;;;11.09;26.46
75497;BME280;64074;47.540;19.072;2023-04-06T11:32:05;100405.63;;;11.49;26.56
75497;BME280;64074;47.540;19.072;2023-04-06T11:35:21;100408.59;;;12.07;25.16
75497;BME280;64074;47.540;19.072;2023-04-06T11:38:24;100404.88;;;12.03;24.81
75497;BME280;64074;47.540;19.072;2023-04-06T11:41:27;100391.50;;;11.93;24.79
75497;BME280;64074;47.540;19.072;2023-04-06T11:44:37;100399.59;;;12.34;23.56
75497;BME280;64074;47.540;19.072;2023-04-06T11:47:43;100394.47;;;11.64;24.82
75497;BME280;64074;47.540;19.072;2023-04-06T11:50:47;100389.16;;;11.73;25.01
75497;BME280;64074;47.540;19.072;2023-04-06T11:53:52;100392.66;;;11.46;25.07
75497;BME280;64074;47.540;19.072;2023-04-06T11:56:55;100390.84;;;10.76;26.36
75497;BME280;64074;47.540;19.072;2023-04-06T11:59:58;100387.31;;;10.94;25.96
75497;BME280;64074;47.540;19.072;2023-04-06T12:03:01;100379.66;;;10.45;25.70
75497;BME280;64074;47.540;19.072;2023-04-06T12:06:04;100384.91;;;10.74;26.52
75497;BME280;64074;47.540;19.072;2023-04-06T12:09:07;100382.44;;;10.59;26.86
75497;BME280;64074;47.540;19.072;2023-04-06T12:12:09;100387.03;;;10.58;26.27
75497;BME280;64074;47.540;19.072;2023-04-06T12:15:12;100375.69;;;10.56;25.87
75497;BME280;64074;47.540;19.072;2023-04-06T12:18:16;100380.56;;;10.16;26.57
75497;BME280;64074;47.540;19.072;2023-04-06T12:21:18;100376.06;;;10.31;26.74
75497;BME280;64074;47.540;19.072;2023-04-06T12:24:21;100389.31;;;10.70;25.93
75497;BME280;64074;47.540;19.072;2023-04-06T12:27:24;100381.91;;;11.40;25.38
75497;BME280;64074;47.540;19.072;2023-04-06T12:30:30;100374.38;;;12.20;24.60
75497;BME280;64074;47.540;19.072;2023-04-06T12:33:33;100373.72;;;12.37;24.31
75497;BME280;64074;47.540;19.072;2023-04-06T12:36:37;100368.50;;;12.40;25.28
75497;BME280;64074;47.540;19.072;2023-04-06T12:39:41;100364.03;;;11.94;24.64
75497;BME280;64074;47.540;19.072;2023-04-06T12:42:44;100366.34;;;12.15;25.01
75497;BME280;64074;47.540;19.072;2023-04-06T12:45:48;100372.66;;;11.55;25.71
75497;BME280;64074;47.540;19.072;2023-04-06T12:48:51;100371.38;;;11.80;25.63
75497;BME280;64074;47.540;19.072;2023-04-06T12:51:56;100366.13;;;11.70;26.02
75497;BME280;64074;47.540;19.072;2023-04-06T12:54:59;100355.16;;;12.02;25.67
75497;BME280;64074;47.540;19.072;2023-04-06T12:58:03;100363.63;;;11.87;25.97
75497;BME280;64074;47.540;19.072;2023-04-06T13:01:07;100366.00;;;11.61;27.28
75497;BME280;64074;47.540;19.072;2023-04-06T13:04:10;100360.38;;;11.44;27.26
75497;BME280;64074;47.540;19.072;2023-04-06T13:07:13;100369.00;;;11.19;27.76
75497;BME280;64074;47.540;19.072;2023-04-06T13:10:16;100362.19;;;11.49;27.25
75497;BME280;64074;47.540;19.072;2023-04-06T13:13:24;100359.25;;;11.31;27.11
75497;BME280;64074;47.540;19.072;2023-04-06T13:16:27;100370.81;;;11.23;27.38
75497;BME280;64074;47.540;19.072;2023-04-06T13:19:30;100360.41;;;11.12;27.74
75497;BME280;64074;47.540;19.072;2023-04-06T13:22:33;100359.03;;;10.82;28.85
75497;BME280;64074;47.540;19.072;2023-04-06T13:25:36;100363.59;;;9.63;29.45
75497;BME280;64074;47.540;19.072;2023-04-06T13:28:39;100377.06;;;9.20;31.50
75497;BME280;64074;47.540;19.072;2023-04-06T13:31:42;100369.31;;;9.62;31.35
75497;BME280;64074;47.540;19.072;2023-04-06T13:34:45;100354.28;;;9.74;32.14
75497;BME280;64074;47.540;19.072;2023-04-06T13:37:51;100358.16;;;9.44;32.14
75497;BME280;64074;47.540;19.072;2023-04-06T13:40:55;100363.84;;;9.14;32.90
75497;BME280;64074;47.540;19.072;2023-04-06T13:43:58;100353.66;;;9.06;34.07
75497;BME280;64074;47.540;19.072;2023-04-06T13:47:01;100350.34;;;9.62;32.75
75497;BME280;64074;47.540;19.072;2023-04-06T13:50:04;100346.84;;;9.37;32.50
75497;BME280;64074;47.540;19.072;2023-04-06T13:53:09;100337.50;;;10.15;30.63
75497;BME280;64074;47.540;19.072;2023-04-06T13:56:12;100340.91;;;10.26;30.99
75497;BME280;64074;47.540;19.072;2023-04-06T13:59:15;100339.34;;;10.57;30.12
75497;BME280;64074;47.540;19.072;2023-04-06T14:02:18;100331.00;;;10.86;29.84
75497;BME280;64074;47.540;19.072;2023-04-06T14:05:22;100336.03;;;10.60;29.56
75497;BME280;64074;47.540;19.072;2023-04-06T14:08:26;100333.91;;;10.76;29.96
75497;BME280;64074;47.540;19.072;2023-04-06T14:11:28;100336.94;;;10.37;30.28
75497;BME280;64074;47.540;19.072;2023-04-06T14:14:32;100336.41;;;10.72;29.89
75497;BME280;64074;47.540;19.072;2023-04-06T14:17:35;100339.03;;;10.59;30.07
75497;BME280;64074;47.540;19.072;2023-04-06T14:20:41;100340.50;;;10.13;30.22
75497;BME280;64074;47.540;19.072;2023-04-06T14:23:44;100333.88;;;9.82;31.35
75497;BME280;64074;47.540;19.072;2023-04-06T14:26:48;100338.38;;;10.10;31.73
75497;BME280;64074;47.540;19.072;2023-04-06T14:29:51;100338.41;;;9.86;31.55
75497;BME280;64074;47.540;19.072;2023-04-06T14:32:57;100334.75;;;9.53;31.29
75497;BME280;64074;47.540;19.072;2023-04-06T14:36:04;100338.03;;;8.98;32.70
75497;BME280;64074;47.540;19.072;2023-04-06T14:39:07;100348.75;;;8.79;33.89
75497;BME280;64074;47.540;19.072;2023-04-06T14:42:11;100351.56;;;8.98;35.20
75497;BME280;64074;47.540;19.072;2023-04-06T14:45:13;100355.13;;;9.22;35.15
75497;BME280;64074;47.540;19.072;2023-04-06T14:48:17;100360.00;;;9.20;35.63
75497;BME280;64074;47.540;19.072;2023-04-06T14:51:21;100355.69;;;9.19;35.20
75497;BME280;64074;47.540;19.072;2023-04-06T14:54:24;100365.03;;;9.32;35.69
75497;BME280;64074;47.540;19.072;2023-04-06T14:57:27;100361.19;;;9.09;35.89
75497;BME280;64074;47.540;19.072;2023-04-06T15:00:30;100365.56;;;9.05;37.66
75497;BME280;64074;47.540;19.072;2023-04-06T15:03:34;100382.09;;;8.64;40.64
75497;BME280;64074;47.540;19.072;2023-04-06T15:06:37;100383.97;;;8.19;42.54
75497;BME280;64074;47.540;19.072;2023-04-06T15:09:40;100379.47;;;7.99;43.08
75497;BME280;64074;47.540;19.072;2023-04-06T15:12:43;100382.50;;;8.42;42.83
75497;BME280;64074;47.540;19.072;2023-04-06T15:15:46;100389.94;;;8.11;43.32
75497;BME280;64074;47.540;19.072;2023-04-06T15:18:49;100395.47;;;7.81;44.99
75497;BME280;64074;47.540;19.072;2023-04-06T15:21:52;100388.09;;;8.01;44.96
75497;BME280;64074;47.540;19.072;2023-04-06T15:24:54;100400.59;;;7.77;45.47
75497;BME280;64074;47.540;19.072;2023-04-06T15:27:59;100400.47;;;7.07;47.20
75497;BME280;64074;47.540;19.072;2023-04-06T15:31:03;100398.53;;;7.49;47.26
75497;BME280;64074;47.540;19.072;2023-04-06T15:34:15;100399.00;;;7.76;46.49
75497;BME280;64074;47.540;19.072;2023-04-06T15:37:18;100393.28;;;7.88;46.26
75497;BME280;64074;47.540;19.072;2023-04-06T15:40:22;100391.97;;;7.80;46.27
75497;BME280;64074;47.540;19.072;2023-04-06T15:43:25;100385.44;;;7.86;46.14
75497;BME280;64074;47.540;19.072;2023-04-06T15:46:28;100395.22;;;7.77;46.44
75497;BME280;64074;47.540;19.072;2023-04-06T15:49:30;100394.59;;;8.00;45.54
75497;BME280;64074;47.540;19.072;2023-04-06T15:52:34;100400.50;;;8.08;45.46
75497;BME280;64074;47.540;19.072;2023-04-06T15:55:37;100406.22;;;7.96;45.51
75497;BME280;64074;47.540;19.072;2023-04-06T15:58:41;100399.78;;;7.82;46.00
75497;BME280;64074;47.540;19.072;2023-04-06T16:01:47;100392.22;;;7.84;45.67
75497;BME280;64074;47.540;19.072;2023-04-06T16:04:57;100391.06;;;8.00;45.25
75497;BME280;64074;47.540;19.072;2023-04-06T16:08:00;100385.03;;;8.23;44.74
75497;BME280;64074;47.540;19.072;2023-04-06T16:11:03;100386.63;;;8.24;44.30
75497;BME280;64074;47.540;19.072;2023-04-06T16:14:07;100375.44;;;7.92;44.91